Time;durP1;ratioP1;P1;durP2;ratioP2;P2;SDS_P1;SDS_P2;PMS_P1;PMS_P2;Temp;Humidity;BMP_temperature;BMP_pressure;BME280_temperature;BME280_humidity;BME280_pressure;Samples;Min_cycle;Max_cycle;Signal;HPM_P1;HPM_P2
2023/08/21 00:00:04;;;;;;;4.90;2.95;;;;;;;;;;5073724;28;20032;-83
2023/08/21 00:02:29;;;;;;;5.25;3.03;;;;;;;;;;5080491;28;20028;-83
2023/08/21 00:04:54;;;;;;;4.82;3.08;;;;;;;;;;5079057;28;20397;-83
2023/08/21 00:07:20;;;;;;;3.10;2.65;;;;;;;;;;5081213;28;20023;-83
2023/08/21 00:09:45;;;;;;;3.08;2.47;;;;;;;;;;5077190;28;20021;-83
2023/08/21 00:12:10;;;;;;;5.47;2.80;;;;;;;;;;5079234;28;20076;-81
2023/08/21 00:14:36;;;;;;;3.50;2.92;;;;;;;;;;5074705;28;20160;-83
2023/08/21 00:17:03;;;;;;;3.30;2.80;;;;;;;;;;5076996;28;20048;-81
2023/08/21 00:19:28;;;;;;;5.43;3.00;;;;;;;;;;5076590;28;20076;-83
2023/08/21 00:21:54;;;;;;;3.30;2.60;;;;;;;;;;5077286;28;20100;-83
2023/08/21 00:24:19;;;;;;;3.40;2.58;;;;;;;;;;5071191;28;20020;-83
2023/08/21 00:26:44;;;;;;;4.55;2.90;;;;;;;;;;5071409;28;20619;-84
2023/08/21 00:29:10;;;;;;;4.40;2.95;;;;;;;;;;5072864;28;20058;-83
2023/08/21 00:31:35;;;;;;;4.88;2.90;;;;;;;;;;5079488;28;20047;-83
2023/08/21 00:34:00;;;;;;;3.35;2.75;;;;;;;;;;5084741;28;20037;-81
2023/08/21 00:36:26;;;;;;;5.22;2.60;;;;;;;;;;5080677;28;20704;-83
2023/08/21 00:38:51;;;;;;;4.07;2.92;;;;;;;;;;5075761;28;20028;-83
2023/08/21 00:41:16;;;;;;;4.22;3.10;;;;;;;;;;5075543;28;20020;-83
2023/08/21 00:43:42;;;;;;;3.35;2.70;;;;;;;;;;5076319;28;20084;-83
2023/08/21 00:46:08;;;;;;;7.43;2.90;;;;;;;;;;5076671;28;20025;-83
2023/08/21 00:48:33;;;;;;;4.50;2.53;;;;;;;;;;5075510;28;21498;-83
2023/08/21 00:50:59;;;;;;;4.28;2.80;;;;;;;;;;5075164;28;20023;-83
2023/08/21 00:53:25;;;;;;;4.95;2.92;;;;;;;;;;5076673;28;20032;-83
2023/08/21 00:55:50;;;;;;;4.80;2.70;;;;;;;;;;5081662;28;20071;-83
2023/08/21 00:58:16;;;;;;;3.35;2.80;;;;;;;;;;5075996;28;20021;-83
2023/08/21 01:00:45;;;;;;;3.70;2.97;;;;;;;;;;5082213;28;20066;-83
2023/08/21 01:03:10;;;;;;;4.45;2.97;;;;;;;;;;5070251;28;20025;-82
2023/08/21 01:05:36;;;;;;;2.80;2.33;;;;;;;;;;5082178;28;20128;-85
2023/08/21 01:08:21;;;;;;;3.42;3.00;;;;;;;;;;5078965;28;20133;-82
2023/08/21 01:10:58;;;;;;;3.70;2.97;;;;;;;;;;5080712;28;20016;-81
2023/08/21 01:13:32;;;;;;;4.63;2.90;;;;;;;;;;5077989;28;20031;-82
2023/08/21 01:15:58;;;;;;;6.00;3.00;;;;;;;;;;5079416;28;20150;-82
2023/08/21 01:18:26;;;;;;;3.88;3.05;;;;;;;;;;5075930;28;20418;-80
2023/08/21 01:20:52;;;;;;;4.70;3.05;;;;;;;;;;5080453;28;20036;-80
2023/08/21 01:23:37;;;;;;;4.53;3.05;;;;;;;;;;5084498;28;20012;-80
2023/08/21 01:26:03;;;;;;;4.85;2.97;;;;;;;;;;5081994;28;20035;-82
2023/08/21 01:28:29;;;;;;;3.05;2.67;;;;;;;;;;5083675;28;20035;-84
2023/08/21 01:31:04;;;;;;;5.10;3.05;;;;;;;;;;5086569;28;20021;-84
2023/08/21 01:33:33;;;;;;;3.15;2.80;;;;;;;;;;5091064;28;20036;-84
2023/08/21 01:36:03;;;;;;;4.22;2.80;;;;;;;;;;5080649;28;20036;-83
2023/08/21 01:38:30;;;;;;;3.70;2.83;;;;;;;;;;5080711;28;20059;-80
2023/08/21 01:40:56;;;;;;;4.25;2.80;;;;;;;;;;5076468;28;20081;-80
2023/08/21 01:43:21;;;;;;;5.00;3.40;;;;;;;;;;5072798;28;20017;-80
2023/08/21 01:45:47;;;;;;;3.80;2.70;;;;;;;;;;5078492;28;20112;-83
2023/08/21 01:48:12;;;;;;;3.88;3.20;;;;;;;;;;5079581;28;20088;-84
2023/08/21 01:50:37;;;;;;;4.57;3.40;;;;;;;;;;5083157;28;20036;-85
2023/08/21 01:53:03;;;;;;;4.80;2.83;;;;;;;;;;5085950;28;20040;-84
2023/08/21 01:55:28;;;;;;;3.10;2.72;;;;;;;;;;5084751;28;20029;-83
2023/08/21 01:57:53;;;;;;;3.92;3.00;;;;;;;;;;5079934;28;20025;-83
2023/08/21 02:00:19;;;;;;;4.40;3.10;;;;;;;;;;5083963;28;20035;-83
2023/08/21 02:02:44;;;;;;;4.75;3.00;;;;;;;;;;5083555;28;20042;-84
2023/08/21 02:05:09;;;;;;;6.28;3.08;;;;;;;;;;5090394;28;20069;-84
2023/08/21 02:07:35;;;;;;;4.90;2.88;;;;;;;;;;5084810;28;20107;-83
2023/08/21 02:10:00;;;;;;;3.50;2.63;;;;;;;;;;5084674;28;20028;-84
2023/08/21 02:12:26;;;;;;;3.88;2.85;;;;;;;;;;5077290;28;20033;-84
2023/08/21 02:14:51;;;;;;;5.25;3.15;;;;;;;;;;5080725;28;20025;-82
2023/08/21 02:17:17;;;;;;;3.80;2.70;;;;;;;;;;5081786;28;20034;-81
2023/08/21 02:19:42;;;;;;;4.28;2.70;;;;;;;;;;5078590;28;20071;-83
2023/08/21 02:22:07;;;;;;;2.95;2.65;;;;;;;;;;5081723;28;20135;-83
2023/08/21 02:24:32;;;;;;;3.40;2.70;;;;;;;;;;5077874;28;20036;-82
2023/08/21 02:26:58;;;;;;;4.68;3.30;;;;;;;;;;5076249;28;20115;-82
2023/08/21 02:29:23;;;;;;;5.20;3.08;;;;;;;;;;5077604;28;20050;-81
2023/08/21 02:31:48;;;;;;;3.38;2.78;;;;;;;;;;5081847;28;20013;-82
2023/08/21 02:34:14;;;;;;;4.55;3.20;;;;;;;;;;5080226;28;20393;-83
2023/08/21 02:36:39;;;;;;;3.67;3.05;;;;;;;;;;5077604;28;20080;-83
2023/08/21 02:39:05;;;;;;;3.95;3.25;;;;;;;;;;5078026;28;20810;-81
2023/08/21 02:41:30;;;;;;;4.32;3.28;;;;;;;;;;5077478;28;20051;-83
2023/08/21 02:43:55;;;;;;;3.80;3.00;;;;;;;;;;5088074;28;20032;-83
2023/08/21 02:46:21;;;;;;;3.80;2.92;;;;;;;;;;5085245;28;20016;-81
2023/08/21 02:48:46;;;;;;;4.57;3.05;;;;;;;;;;5079082;28;20020;-81
2023/08/21 02:51:12;;;;;;;5.07;3.78;;;;;;;;;;5071336;28;20020;-82
2023/08/21 02:53:37;;;;;;;2.75;2.50;;;;;;;;;;5073559;28;20037;-83
2023/08/21 02:56:02;;;;;;;4.97;3.13;;;;;;;;;;5082642;28;20054;-82
2023/08/21 02:58:27;;;;;;;4.22;3.17;;;;;;;;;;5080973;28;20647;-80
2023/08/21 03:00:53;;;;;;;4.80;3.22;;;;;;;;;;5080175;28;20473;-82
2023/08/21 03:03:18;;;;;;;3.75;2.88;;;;;;;;;;5076756;28;20023;-81
2023/08/21 03:05:44;;;;;;;5.30;3.22;;;;;;;;;;5083076;28;20028;-83
2023/08/21 03:08:09;;;;;;;3.83;3.33;;;;;;;;;;5071056;28;20282;-82
2023/08/21 03:10:36;;;;;;;4.70;3.15;;;;;;;;;;5084130;28;20443;-81
2023/08/21 03:13:02;;;;;;;4.13;3.20;;;;;;;;;;5085964;28;20037;-81
2023/08/21 03:15:27;;;;;;;5.22;3.47;;;;;;;;;;5076436;28;20393;-82
2023/08/21 03:17:53;;;;;;;4.95;3.00;;;;;;;;;;5074104;28;20472;-81
2023/08/21 03:20:18;;;;;;;3.70;3.15;;;;;;;;;;5075537;28;20062;-82
2023/08/21 03:22:43;;;;;;;3.88;2.90;;;;;;;;;;5071799;28;20505;-83
2023/08/21 03:25:09;;;;;;;4.25;3.20;;;;;;;;;;5070718;28;20043;-80
2023/08/21 03:27:39;;;;;;;4.35;2.50;;;;;;;;;;5072392;28;20047;-82
2023/08/21 03:30:06;;;;;;;4.20;3.22;;;;;;;;;;5080461;28;20480;-81
2023/08/21 03:32:32;;;;;;;4.43;3.10;;;;;;;;;;5075954;28;20773;-82
2023/08/21 03:34:57;;;;;;;6.47;3.28;;;;;;;;;;5076476;28;20063;-82
2023/08/21 03:37:22;;;;;;;4.30;2.90;;;;;;;;;;5079832;28;20027;-82
2023/08/21 03:39:48;;;;;;;4.90;3.15;;;;;;;;;;5077863;28;20532;-81
2023/08/21 03:42:13;;;;;;;4.22;3.15;;;;;;;;;;5079197;28;20066;-83
2023/08/21 03:44:39;;;;;;;3.97;3.05;;;;;;;;;;5078883;28;20032;-83
2023/08/21 03:47:05;;;;;;;3.50;2.70;;;;;;;;;;5076404;28;20060;-83
2023/08/21 03:49:30;;;;;;;3.80;2.95;;;;;;;;;;5077125;28;20033;-83
2023/08/21 03:51:55;;;;;;;3.13;2.58;;;;;;;;;;5078708;28;20039;-83
2023/08/21 03:54:21;;;;;;;4.25;3.10;;;;;;;;;;5081970;28;20060;-83
2023/08/21 03:56:46;;;;;;;5.95;3.13;;;;;;;;;;5081282;28;20035;-83
2023/08/21 03:59:11;;;;;;;4.63;3.33;;;;;;;;;;5077966;28;20031;-83
2023/08/21 04:01:37;;;;;;;4.40;3.20;;;;;;;;;;5077010;28;20031;-84
2023/08/21 04:04:02;;;;;;;4.55;3.38;;;;;;;;;;5076722;28;20020;-82
2023/08/21 04:06:28;;;;;;;5.20;3.05;;;;;;;;;;5075390;28;20153;-85
2023/08/21 04:08:53;;;;;;;3.85;3.20;;;;;;;;;;5078895;28;20028;-83
2023/08/21 04:11:18;;;;;;;4.93;3.40;;;;;;;;;;5074909;28;20046;-84
2023/08/21 04:13:44;;;;;;;4.28;3.20;;;;;;;;;;5075589;28;20035;-84
2023/08/21 04:16:10;;;;;;;5.03;3.35;;;;;;;;;;5079211;28;20012;-83
2023/08/21 04:18:36;;;;;;;3.55;2.75;;;;;;;;;;5074592;28;20489;-85
2023/08/21 04:21:02;;;;;;;4.22;2.97;;;;;;;;;;5077653;28;20033;-83
2023/08/21 04:23:27;;;;;;;3.83;3.40;;;;;;;;;;5074307;28;20093;-84
2023/08/21 04:25:53;;;;;;;5.07;3.05;;;;;;;;;;5077517;28;20033;-82
2023/08/21 04:28:18;;;;;;;3.92;3.05;;;;;;;;;;5079510;28;20017;-83
2023/08/21 04:30:43;;;;;;;3.45;3.15;;;;;;;;;;5074605;28;20031;-83
2023/08/21 04:33:09;;;;;;;6.63;3.33;;;;;;;;;;5075435;28;20023;-83
2023/08/21 04:35:38;;;;;;;3.88;3.28;;;;;;;;;;5075651;28;20036;-83
2023/08/21 04:38:04;;;;;;;4.60;3.45;;;;;;;;;;5078421;28;20153;-82
2023/08/21 04:40:29;;;;;;;5.55;3.20;;;;;;;;;;5075023;28;20472;-82
2023/08/21 04:42:54;;;;;;;4.57;3.70;;;;;;;;;;5079004;28;20626;-83
2023/08/21 04:45:19;;;;;;;3.70;2.83;;;;;;;;;;5081007;28;20021;-83
2023/08/21 04:47:45;;;;;;;5.70;3.65;;;;;;;;;;5082651;28;20032;-82
2023/08/21 04:50:12;;;;;;;3.03;2.72;;;;;;;;;;5077317;28;20029;-83
2023/08/21 04:52:37;;;;;;;4.20;2.83;;;;;;;;;;5077176;28;20057;-83
2023/08/21 04:55:03;;;;;;;5.82;3.40;;;;;;;;;;5076397;28;20110;-82
2023/08/21 04:57:28;;;;;;;7.30;3.25;;;;;;;;;;5075670;28;20042;-83
2023/08/21 04:59:53;;;;;;;3.67;3.25;;;;;;;;;;5079001;28;20032;-83
2023/08/21 05:02:19;;;;;;;4.18;3.03;;;;;;;;;;5078207;28;20078;-83
2023/08/21 05:04:44;;;;;;;3.67;2.85;;;;;;;;;;5074058;28;20024;-83
2023/08/21 05:07:09;;;;;;;4.90;3.08;;;;;;;;;;5074401;28;20035;-83
2023/08/21 05:09:35;;;;;;;3.70;2.85;;;;;;;;;;5074593;28;20027;-82
2023/08/21 05:12:00;;;;;;;5.80;3.30;;;;;;;;;;5073119;28;20082;-82
2023/08/21 05:14:25;;;;;;;5.30;3.33;;;;;;;;;;5075382;28;20028;-80
2023/08/21 05:16:51;;;;;;;6.13;3.38;;;;;;;;;;5071537;28;20016;-83
2023/08/21 05:19:17;;;;;;;6.55;3.20;;;;;;;;;;5076685;28;20121;-83
2023/08/21 05:21:43;;;;;;;6.75;3.17;;;;;;;;;;5075293;28;20104;-83
2023/08/21 05:24:08;;;;;;;5.15;3.47;;;;;;;;;;5076798;28;20103;-83
2023/08/21 05:26:36;;;;;;;4.60;3.42;;;;;;;;;;5074449;28;20028;-82
2023/08/21 05:29:01;;;;;;;3.72;3.00;;;;;;;;;;5082996;28;20879;-83
2023/08/21 05:31:27;;;;;;;4.00;3.10;;;;;;;;;;5076478;28;20032;-83
2023/08/21 05:33:52;;;;;;;4.25;3.28;;;;;;;;;;5071649;28;20119;-83
2023/08/21 05:36:17;;;;;;;4.28;3.13;;;;;;;;;;5074815;28;20050;-83
2023/08/21 05:38:42;;;;;;;6.18;3.55;;;;;;;;;;5069165;28;20040;-82
2023/08/21 05:41:08;;;;;;;5.30;3.55;;;;;;;;;;5073363;28;20105;-83
2023/08/21 05:43:34;;;;;;;6.47;3.67;;;;;;;;;;5075067;28;20120;-82
2023/08/21 05:45:59;;;;;;;5.50;3.75;;;;;;;;;;5077523;28;20498;-83
2023/08/21 05:48:25;;;;;;;7.30;3.53;;;;;;;;;;5077947;28;20032;-83
2023/08/21 05:50:53;;;;;;;6.05;3.50;;;;;;;;;;5076190;28;20233;-83
2023/08/21 05:53:19;;;;;;;4.30;3.20;;;;;;;;;;5077799;28;20028;-83
2023/08/21 05:55:44;;;;;;;4.35;3.47;;;;;;;;;;5077057;28;20073;-82
2023/08/21 05:58:10;;;;;;;4.60;3.17;;;;;;;;;;5076019;28;20047;-84
2023/08/21 06:00:35;;;;;;;7.72;3.85;;;;;;;;;;5074171;28;20025;-83
2023/08/21 06:03:01;;;;;;;5.97;3.88;;;;;;;;;;5073535;28;20024;-82
2023/08/21 06:05:26;;;;;;;5.00;3.20;;;;;;;;;;5076092;28;20394;-81
2023/08/21 06:07:52;;;;;;;3.90;3.30;;;;;;;;;;5083479;28;20077;-82
2023/08/21 06:10:17;;;;;;;4.40;3.30;;;;;;;;;;5080907;28;20032;-84
2023/08/21 06:12:43;;;;;;;4.63;3.53;;;;;;;;;;5080133;28;20020;-83
2023/08/21 06:15:08;;;;;;;4.82;3.60;;;;;;;;;;5089176;28;20016;-82
2023/08/21 06:17:34;;;;;;;3.90;2.70;;;;;;;;;;5082194;28;20029;-81
2023/08/21 06:20:00;;;;;;;4.65;3.40;;;;;;;;;;5081007;28;20059;-82
2023/08/21 06:22:25;;;;;;;3.50;3.03;;;;;;;;;;5076334;28;20028;-82
2023/08/21 06:24:53;;;;;;;6.40;3.13;;;;;;;;;;5077501;28;20017;-81
2023/08/21 06:27:18;;;;;;;4.40;3.10;;;;;;;;;;5083063;28;20032;-84
2023/08/21 06:29:43;;;;;;;3.90;3.10;;;;;;;;;;5078686;28;20379;-82
2023/08/21 06:32:09;;;;;;;5.82;3.33;;;;;;;;;;5077458;28;20418;-82
2023/08/21 06:34:35;;;;;;;3.90;3.00;;;;;;;;;;5087457;28;20087;-81
2023/08/21 06:37:00;;;;;;;5.65;3.00;;;;;;;;;;5080017;28;20012;-81
2023/08/21 06:39:25;;;;;;;3.72;2.75;;;;;;;;;;5090137;28;20098;-82
2023/08/21 06:41:51;;;;;;;4.13;3.15;;;;;;;;;;5069371;28;20463;-82
2023/08/21 06:44:16;;;;;;;3.97;2.85;;;;;;;;;;5079837;28;20025;-82
2023/08/21 06:46:42;;;;;;;4.40;3.00;;;;;;;;;;5089401;28;20030;-83
2023/08/21 06:49:07;;;;;;;4.60;3.25;;;;;;;;;;5082756;28;20020;-82
2023/08/21 06:51:32;;;;;;;4.40;3.10;;;;;;;;;;5080292;28;20024;-81
2023/08/21 06:53:58;;;;;;;3.00;2.70;;;;;;;;;;5086613;28;20032;-81
2023/08/21 06:56:23;;;;;;;3.15;2.72;;;;;;;;;;5094648;28;20017;-81
2023/08/21 06:58:48;;;;;;;4.78;3.60;;;;;;;;;;5087664;28;20021;-81
2023/08/21 07:01:14;;;;;;;4.47;3.25;;;;;;;;;;5107771;28;20023;-81
2023/08/21 07:03:39;;;;;;;4.25;3.40;;;;;;;;;;5091103;28;20023;-82
2023/08/21 07:06:05;;;;;;;6.45;3.55;;;;;;;;;;5071266;28;20493;-82
2023/08/21 07:08:30;;;;;;;4.38;2.72;;;;;;;;;;5066221;28;20036;-82
2023/08/21 07:10:56;;;;;;;5.35;3.33;;;;;;;;;;5072234;28;20021;-84
2023/08/21 07:13:21;;;;;;;4.20;3.42;;;;;;;;;;5070714;28;20035;-84
2023/08/21 07:15:47;;;;;;;5.85;3.58;;;;;;;;;;5076200;28;20032;-85
2023/08/21 07:18:13;;;;;;;6.60;4.22;;;;;;;;;;5076637;28;20077;-85
2023/08/21 07:20:38;;;;;;;5.72;3.72;;;;;;;;;;5075311;28;20474;-84
2023/08/21 07:23:03;;;;;;;5.22;3.70;;;;;;;;;;5068129;28;20016;-82
2023/08/21 07:25:29;;;;;;;4.57;3.33;;;;;;;;;;5067488;28;20033;-84
2023/08/21 07:27:54;;;;;;;4.45;3.60;;;;;;;;;;5073634;28;20414;-84
2023/08/21 07:30:20;;;;;;;4.47;3.25;;;;;;;;;;5067727;28;20467;-84
2023/08/21 07:32:46;;;;;;;3.97;3.40;;;;;;;;;;5073064;28;20088;-84
2023/08/21 07:35:12;;;;;;;3.70;3.25;;;;;;;;;;5074070;28;20030;-86
2023/08/21 07:37:37;;;;;;;4.35;3.20;;;;;;;;;;5066571;28;20025;-86
2023/08/21 07:40:05;;;;;;;3.78;3.38;;;;;;;;;;5073966;28;20016;-85
2023/08/21 07:42:30;;;;;;;3.58;2.78;;;;;;;;;;5074602;28;20017;-86
2023/08/21 07:44:55;;;;;;;3.75;2.90;;;;;;;;;;5073538;28;20101;-83
2023/08/21 07:47:20;;;;;;;4.22;2.72;;;;;;;;;;5082824;28;20025;-87
2023/08/21 07:49:46;;;;;;;5.00;3.30;;;;;;;;;;5075815;28;20021;-84
2023/08/21 07:52:11;;;;;;;3.70;2.80;;;;;;;;;;5080067;28;20024;-84
2023/08/21 07:54:36;;;;;;;3.92;3.13;;;;;;;;;;5072833;28;20032;-83
2023/08/21 07:57:03;;;;;;;3.53;2.97;;;;;;;;;;5073565;28;20053;-84
2023/08/21 07:59:29;;;;;;;3.22;2.45;;;;;;;;;;5073480;28;20177;-84
2023/08/21 08:01:54;;;;;;;4.13;3.22;;;;;;;;;;5060647;28;20484;-84
2023/08/21 08:04:20;;;;;;;3.35;2.83;;;;;;;;;;5075065;28;20017;-83
2023/08/21 08:06:45;;;;;;;5.10;3.33;;;;;;;;;;5077130;28;20032;-85
2023/08/21 08:09:11;;;;;;;4.43;3.00;;;;;;;;;;5073120;28;20644;-86
2023/08/21 08:11:36;;;;;;;4.18;2.85;;;;;;;;;;5065520;28;20020;-85
2023/08/21 08:14:01;;;;;;;5.13;3.25;;;;;;;;;;5075854;28;20020;-84
2023/08/21 08:16:27;;;;;;;5.57;3.13;;;;;;;;;;5075411;28;20016;-85
2023/08/21 08:18:52;;;;;;;3.22;2.80;;;;;;;;;;5075945;28;20024;-85
2023/08/21 08:21:18;;;;;;;4.03;2.80;;;;;;;;;;5078369;28;20032;-84
2023/08/21 08:23:43;;;;;;;5.05;3.55;;;;;;;;;;5085191;28;20028;-83
2023/08/21 08:26:09;;;;;;;4.93;2.80;;;;;;;;;;5077867;28;20069;-86
2023/08/21 08:28:35;;;;;;;4.10;3.03;;;;;;;;;;5074046;28;20024;-85
2023/08/21 08:31:00;;;;;;;2.70;2.50;;;;;;;;;;5074217;28;20073;-83
2023/08/21 08:33:26;;;;;;;3.15;2.85;;;;;;;;;;5086096;28;20032;-83
2023/08/21 08:35:52;;;;;;;3.78;2.75;;;;;;;;;;5080084;28;20039;-85
2023/08/21 08:38:18;;;;;;;3.03;2.72;;;;;;;;;;5082775;28;20102;-86
2023/08/21 08:40:45;;;;;;;4.60;2.92;;;;;;;;;;5086551;28;20024;-84
2023/08/21 08:43:14;;;;;;;4.13;3.10;;;;;;;;;;5082173;28;20017;-84
2023/08/21 08:45:41;;;;;;;5.88;3.05;;;;;;;;;;5076279;28;20039;-84
2023/08/21 08:48:07;;;;;;;3.90;3.05;;;;;;;;;;5077850;28;20025;-85
2023/08/21 08:50:34;;;;;;;3.17;2.70;;;;;;;;;;5076467;28;20020;-83
2023/08/21 08:53:00;;;;;;;3.95;2.58;;;;;;;;;;5072352;28;20034;-85
2023/08/21 08:55:26;;;;;;;3.20;2.90;;;;;;;;;;5081966;28;20466;-85
2023/08/21 08:57:53;;;;;;;4.03;2.78;;;;;;;;;;5077482;28;20154;-85
2023/08/21 09:00:22;;;;;;;5.38;2.92;;;;;;;;;;5077091;28;20031;-84
2023/08/21 09:02:48;;;;;;;4.50;2.95;;;;;;;;;;5085810;28;20016;-84
2023/08/21 09:05:13;;;;;;;4.95;3.08;;;;;;;;;;5076765;28;20504;-85
2023/08/21 09:07:39;;;;;;;2.75;2.55;;;;;;;;;;5069329;28;20036;-85
2023/08/21 09:10:13;;;;;;;5.22;2.85;;;;;;;;;;5078632;28;20027;-85
2023/08/21 09:12:41;;;;;;;3.83;3.00;;;;;;;;;;5068675;28;20031;-85
2023/08/21 09:15:08;;;;;;;4.57;2.97;;;;;;;;;;5080018;28;20029;-85
2023/08/21 09:17:33;;;;;;;5.28;2.90;;;;;;;;;;5080689;28;20545;-85
2023/08/21 09:20:07;;;;;;;3.85;3.10;;;;;;;;;;5082649;28;20025;-84
2023/08/21 09:22:33;;;;;;;4.30;3.00;;;;;;;;;;5078301;28;20028;-84
2023/08/21 09:25:06;;;;;;;3.20;2.60;;;;;;;;;;5083848;28;20059;-84
2023/08/21 09:27:33;;;;;;;3.90;3.38;;;;;;;;;;5069561;28;20048;-83
2023/08/21 09:30:00;;;;;;;5.20;2.72;;;;;;;;;;5071412;28;20024;-83
2023/08/21 09:32:25;;;;;;;2.90;2.55;;;;;;;;;;5084782;28;20035;-84
2023/08/21 09:34:51;;;;;;;3.85;2.95;;;;;;;;;;5077329;28;20027;-85
2023/08/21 09:37:17;;;;;;;3.05;2.75;;;;;;;;;;5077858;28;20047;-85
2023/08/21 09:39:42;;;;;;;3.45;2.83;;;;;;;;;;5075768;28;20024;-85
2023/08/21 09:42:09;;;;;;;3.45;2.85;;;;;;;;;;5074863;28;20047;-84
2023/08/21 09:44:43;;;;;;;3.92;3.05;;;;;;;;;;5078847;28;20097;-83
2023/08/21 09:47:09;;;;;;;3.30;2.70;;;;;;;;;;5080973;28;20028;-86
2023/08/21 09:49:36;;;;;;;4.15;3.10;;;;;;;;;;5093980;28;20077;-84
2023/08/21 09:52:04;;;;;;;5.28;3.13;;;;;;;;;;5075142;28;20020;-83
2023/08/21 09:54:31;;;;;;;5.07;2.85;;;;;;;;;;5092698;28;20035;-83
2023/08/21 09:57:01;;;;;;;3.97;2.63;;;;;;;;;;5076039;28;20386;-85
2023/08/21 09:59:27;;;;;;;3.38;2.90;;;;;;;;;;5077227;28;20029;-84
2023/08/21 10:01:52;;;;;;;4.75;2.60;;;;;;;;;;5091303;28;20020;-85
2023/08/21 10:04:18;;;;;;;5.47;2.47;;;;;;;;;;5070470;28;20497;-87
2023/08/21 10:06:46;;;;;;;5.07;3.08;;;;;;;;;;5074707;28;20056;-85
2023/08/21 10:09:13;;;;;;;3.38;2.90;;;;;;;;;;5076712;28;20088;-86
2023/08/21 10:11:38;;;;;;;4.05;2.70;;;;;;;;;;5082620;28;20020;-84
2023/08/21 10:14:04;;;;;;;5.28;2.65;;;;;;;;;;5070237;28;20059;-83
2023/08/21 10:16:29;;;;;;;2.67;2.47;;;;;;;;;;5058311;28;20044;-83
2023/08/21 10:18:55;;;;;;;3.72;2.70;;;;;;;;;;5077131;28;20027;-84
2023/08/21 10:21:22;;;;;;;4.45;2.50;;;;;;;;;;5086001;28;20388;-85
2023/08/21 10:23:49;;;;;;;4.18;2.38;;;;;;;;;;5071455;28;20397;-84
2023/08/21 10:26:15;;;;;;;4.90;2.47;;;;;;;;;;5072061;28;20047;-84
2023/08/21 10:28:54;;;;;;;2.85;2.22;;;;;;;;;;5071171;28;20043;-85
2023/08/21 10:31:36;;;;;;;4.32;2.45;;;;;;;;;;5075515;28;20021;-85
2023/08/21 10:34:06;;;;;;;5.43;2.70;;;;;;;;;;5071923;28;20029;-85
2023/08/21 10:36:44;;;;;;;4.25;2.78;;;;;;;;;;5076100;28;20032;-85
2023/08/21 10:39:26;;;;;;;4.90;2.92;;;;;;;;;;5071495;28;20024;-85
2023/08/21 10:42:03;;;;;;;6.05;2.50;;;;;;;;;;5073611;28;20036;-85
2023/08/21 10:44:58;;;;;;;3.13;2.75;;;;;;;;;;5081434;28;20024;-84
2023/08/21 10:47:26;;;;;;;4.68;2.58;;;;;;;;;;5079605;28;20646;-85
2023/08/21 10:53:13;;;;;;;4.63;2.40;;;;;;;;;;5081728;28;20043;-85
2023/08/21 10:55:39;;;;;;;3.42;2.80;;;;;;;;;;5078172;28;20028;-85
2023/08/21 10:58:22;;;;;;;3.13;2.22;;;;;;;;;;5093227;28;20509;-85
2023/08/21 11:01:26;;;;;;;3.17;2.25;;;;;;;;;;5077054;28;20024;-84
2023/08/21 11:03:51;;;;;;;2.90;2.60;;;;;;;;;;5083254;28;20051;-85
2023/08/21 11:06:19;;;;;;;3.78;2.35;;;;;;;;;;5082946;28;20019;-85
2023/08/21 11:08:44;;;;;;;4.55;2.33;;;;;;;;;;5084958;28;20025;-85
2023/08/21 11:11:10;;;;;;;5.68;2.50;;;;;;;;;;5079941;28;20018;-86
2023/08/21 11:13:36;;;;;;;2.58;2.38;;;;;;;;;;5069423;28;20033;-85
2023/08/21 11:16:04;;;;;;;5.00;2.63;;;;;;;;;;5085641;28;20035;-87
2023/08/21 11:18:37;;;;;;;4.53;2.58;;;;;;;;;;5082241;28;20029;-86
2023/08/21 11:21:08;;;;;;;3.38;2.63;;;;;;;;;;5089341;28;20032;-85
2023/08/21 11:23:35;;;;;;;2.40;2.20;;;;;;;;;;5080943;28;20024;-85
2023/08/21 11:26:28;;;;;;;3.42;2.53;;;;;;;;;;5094424;28;20027;-84
2023/08/21 11:28:55;;;;;;;2.45;2.25;;;;;;;;;;5059512;28;20551;-85
2023/08/21 11:31:21;;;;;;;3.05;2.58;;;;;;;;;;5080895;28;20466;-85
2023/08/21 11:33:50;;;;;;;3.95;2.78;;;;;;;;;;5071873;28;20504;-85
2023/08/21 11:36:16;;;;;;;3.03;2.50;;;;;;;;;;5080439;28;20032;-85
2023/08/21 11:38:41;;;;;;;3.20;2.67;;;;;;;;;;5077799;28;20032;-85
2023/08/21 11:41:07;;;;;;;4.00;3.05;;;;;;;;;;5077375;28;20351;-84
2023/08/21 11:43:40;;;;;;;4.38;2.47;;;;;;;;;;5084534;28;20085;-84
2023/08/21 11:46:07;;;;;;;5.32;2.60;;;;;;;;;;5073157;28;20367;-84
2023/08/21 11:48:33;;;;;;;3.42;2.50;;;;;;;;;;5083872;28;20360;-84
2023/08/21 11:50:59;;;;;;;3.60;2.70;;;;;;;;;;5076421;28;20078;-83
2023/08/21 11:53:51;;;;;;;4.55;2.53;;;;;;;;;;5086221;28;20024;-82
2023/08/21 11:56:17;;;;;;;4.68;2.75;;;;;;;;;;5085209;28;20112;-83
2023/08/21 11:58:45;;;;;;;8.93;3.45;;;;;;;;;;5086876;28;20036;-85
2023/08/21 12:01:10;;;;;;;5.25;2.75;;;;;;;;;;5080724;28;20050;-83
2023/08/21 12:03:38;;;;;;;3.72;3.00;;;;;;;;;;5079590;28;20031;-83
2023/08/21 12:06:11;;;;;;;7.30;2.90;;;;;;;;;;5084934;28;20048;-83
2023/08/21 12:08:37;;;;;;;3.10;2.78;;;;;;;;;;5075773;28;20036;-83
2023/08/21 12:11:49;;;;;;;3.45;2.50;;;;;;;;;;5077387;28;20127;-83
2023/08/21 12:14:19;;;;;;;4.70;2.70;;;;;;;;;;5094593;28;20074;-83
2023/08/21 12:17:07;;;;;;;3.30;2.80;;;;;;;;;;5084487;28;20028;-83
2023/08/21 12:19:32;;;;;;;3.30;2.72;;;;;;;;;;5079845;28;20032;-84
2023/08/21 12:21:58;;;;;;;5.55;2.58;;;;;;;;;;5076353;28;20067;-84
2023/08/21 12:24:24;;;;;;;2.92;2.60;;;;;;;;;;5084850;28;20044;-84
2023/08/21 12:26:49;;;;;;;4.47;2.97;;;;;;;;;;5074170;28;20031;-84
2023/08/21 12:29:14;;;;;;;4.43;3.00;;;;;;;;;;5087305;28;20046;-84
2023/08/21 12:31:40;;;;;;;4.78;3.10;;;;;;;;;;5070911;28;20603;-84
2023/08/21 12:34:06;;;;;;;3.10;2.50;;;;;;;;;;5070826;28;20135;-83
2023/08/21 12:36:35;;;;;;;3.58;2.83;;;;;;;;;;5079882;28;20066;-84
2023/08/21 12:39:00;;;;;;;4.70;2.83;;;;;;;;;;5075146;28;20039;-84
2023/08/21 12:41:26;;;;;;;3.40;2.67;;;;;;;;;;5063333;28;20519;-84
2023/08/21 12:43:51;;;;;;;5.43;3.15;;;;;;;;;;5078255;28;20023;-84
2023/08/21 12:46:17;;;;;;;2.72;2.47;;;;;;;;;;5079921;28;20028;-84
2023/08/21 12:48:42;;;;;;;3.60;2.70;;;;;;;;;;5074417;28;20099;-84
2023/08/21 12:51:07;;;;;;;3.30;2.72;;;;;;;;;;5082210;28;20187;-85
2023/08/21 12:53:33;;;;;;;4.63;2.47;;;;;;;;;;5073827;28;20059;-87
2023/08/21 12:55:58;;;;;;;2.88;2.50;;;;;;;;;;5089447;28;20470;-84
2023/08/21 12:58:23;;;;;;;3.50;2.83;;;;;;;;;;5071366;28;20012;-84
2023/08/21 13:00:49;;;;;;;2.53;2.33;;;;;;;;;;5096071;28;20085;-84
2023/08/21 13:03:15;;;;;;;3.53;2.60;;;;;;;;;;5081021;28;20020;-83
2023/08/21 13:05:40;;;;;;;6.78;4.22;;;;;;;;;;5080745;28;20750;-84
2023/08/21 13:08:05;;;;;;;3.80;2.70;;;;;;;;;;5068430;28;20098;-85
2023/08/21 13:10:31;;;;;;;3.10;2.80;;;;;;;;;;5083882;28;20056;-86
2023/08/21 13:12:56;;;;;;;3.53;2.60;;;;;;;;;;5077086;28;20031;-86
2023/08/21 13:15:21;;;;;;;3.53;2.70;;;;;;;;;;5086496;28;20095;-84
2023/08/21 13:17:47;;;;;;;3.58;2.55;;;;;;;;;;5085590;28;20402;-83
2023/08/21 13:20:12;;;;;;;4.45;2.33;;;;;;;;;;5073539;28;20066;-84
2023/08/21 13:22:48;;;;;;;6.20;2.58;;;;;;;;;;5065282;28;20079;-83
2023/08/21 13:25:15;;;;;;;2.50;2.30;;;;;;;;;;5072125;28;20458;-84
2023/08/21 13:27:41;;;;;;;2.72;2.50;;;;;;;;;;5079651;28;20078;-83
2023/08/21 13:30:08;;;;;;;7.70;2.70;;;;;;;;;;5074696;28;20036;-83
2023/08/21 13:32:33;;;;;;;3.72;2.78;;;;;;;;;;5071400;28;20035;-84
2023/08/21 13:34:59;;;;;;;2.38;2.17;;;;;;;;;;5084254;28;20032;-83
2023/08/21 13:37:24;;;;;;;2.92;2.33;;;;;;;;;;5083006;28;20445;-84
2023/08/21 13:39:49;;;;;;;3.13;2.47;;;;;;;;;;5087456;28;20035;-84
2023/08/21 13:42:15;;;;;;;4.07;2.60;;;;;;;;;;5075932;28;20020;-84
2023/08/21 13:44:40;;;;;;;4.18;2.50;;;;;;;;;;5071781;28;20035;-84
2023/08/21 13:47:06;;;;;;;3.53;2.45;;;;;;;;;;5083709;28;20097;-85
2023/08/21 13:49:31;;;;;;;2.55;2.30;;;;;;;;;;5074722;28;20405;-84
2023/08/21 13:52:00;;;;;;;2.47;2.10;;;;;;;;;;5074219;28;20024;-86
2023/08/21 13:54:25;;;;;;;3.63;2.47;;;;;;;;;;5093635;28;20089;-85
2023/08/21 13:56:51;;;;;;;3.78;2.22;;;;;;;;;;5094934;28;20074;-85
2023/08/21 13:59:16;;;;;;;5.18;2.65;;;;;;;;;;5091880;28;20032;-84
2023/08/21 14:01:41;;;;;;;2.40;2.22;;;;;;;;;;5078269;28;20033;-84
2023/08/21 14:04:07;;;;;;;3.90;2.58;;;;;;;;;;5088605;28;20032;-85
2023/08/21 14:06:32;;;;;;;2.67;2.22;;;;;;;;;;5077651;28;20024;-85
2023/08/21 14:08:57;;;;;;;3.95;2.45;;;;;;;;;;5083884;28;20500;-85
2023/08/21 14:11:23;;;;;;;3.22;2.40;;;;;;;;;;5094366;28;20036;-86
2023/08/21 14:13:48;;;;;;;5.13;2.60;;;;;;;;;;5074365;28;20100;-86
2023/08/21 14:16:13;;;;;;;3.75;2.47;;;;;;;;;;5081904;28;20394;-85
2023/08/21 14:18:39;;;;;;;4.50;2.85;;;;;;;;;;5084781;28;20032;-87
2023/08/21 14:21:04;;;;;;;3.92;2.40;;;;;;;;;;5079158;28;20037;-84
2023/08/21 14:23:30;;;;;;;4.75;2.80;;;;;;;;;;5076189;28;20027;-85
2023/08/21 14:26:04;;;;;;;3.78;2.60;;;;;;;;;;5080100;28;20440;-85
2023/08/21 14:28:30;;;;;;;2.80;2.50;;;;;;;;;;5080917;28;20040;-84
2023/08/21 14:30:56;;;;;;;3.10;2.40;;;;;;;;;;5085476;28;20020;-84
2023/08/21 14:33:21;;;;;;;4.55;2.65;;;;;;;;;;5086935;28;20024;-85
2023/08/21 14:35:46;;;;;;;4.15;2.67;;;;;;;;;;5083397;28;20381;-85
2023/08/21 14:38:12;;;;;;;3.28;2.58;;;;;;;;;;5093861;28;20024;-86
2023/08/21 14:40:37;;;;;;;2.92;2.60;;;;;;;;;;5098102;28;20020;-85
2023/08/21 14:43:03;;;;;;;3.28;2.70;;;;;;;;;;5081410;28;20117;-84